createdAt,value
2018-01-14T00:00:17.894Z,13.40
2018-01-14T00:01:17.898Z,13.40
2018-01-14T00:02:17.829Z,13.40
2018-01-14T00:03:17.903Z,13.40
2018-01-14T00:04:17.836Z,13.40
2018-01-14T00:05:17.896Z,13.40
2018-01-14T00:06:17.836Z,13.40
2018-01-14T00:07:17.900Z,13.40
2018-01-14T00:08:17.836Z,11.50
2018-01-14T00:09:17.904Z,11.50
2018-01-14T00:10:17.835Z,11.50
2018-01-14T00:11:17.901Z,11.50
2018-01-14T00:12:17.836Z,11.50
2018-01-14T00:13:17.903Z,11.50
2018-01-14T00:14:17.838Z,11.50
2018-01-14T00:15:17.906Z,11.50
2018-01-14T00:16:17.843Z,11.50
2018-01-14T00:17:17.911Z,11.50
2018-01-14T00:18:17.903Z,11.70
2018-01-14T00:19:17.846Z,11.70
2018-01-14T00:20:17.906Z,11.70
2018-01-14T00:21:17.840Z,11.70
2018-01-14T00:22:17.912Z,11.70
2018-01-14T00:23:17.843Z,11.70
2018-01-14T00:24:17.908Z,11.70
2018-01-14T00:25:17.914Z,11.70
2018-01-14T00:26:17.848Z,11.70
2018-01-14T00:27:17.910Z,11.70
2018-01-14T00:28:17.836Z,13.00
2018-01-14T00:29:17.908Z,13.00
2018-01-14T00:30:17.812Z,13.00
2018-01-14T00:31:17.815Z,13.00
2018-01-14T00:32:17.864Z,13.00
2018-01-14T00:33:17.910Z,13.00
2018-01-14T00:34:17.914Z,13.00
2018-01-14T00:35:17.820Z,13.00
2018-01-14T00:36:17.954Z,13.00
2018-01-14T00:37:17.903Z,13.00
2018-01-14T00:38:17.851Z,10.90
2018-01-14T00:39:17.924Z,10.90
2018-01-14T00:40:17.857Z,10.90
2018-01-14T00:41:17.917Z,10.90
2018-01-14T00:42:17.882Z,10.90
2018-01-14T00:43:17.925Z,10.90
2018-01-14T00:44:17.856Z,10.90
2018-01-14T00:45:17.923Z,10.90
2018-01-14T00:46:17.855Z,10.90
2018-01-14T00:47:17.924Z,10.90
2018-01-14T00:48:17.924Z,11.70
2018-01-14T00:49:17.865Z,11.70
2018-01-14T00:50:17.932Z,11.70
2018-01-14T00:51:17.863Z,11.70
2018-01-14T00:52:17.925Z,11.70
2018-01-14T00:53:17.868Z,11.70
2018-01-14T00:54:17.861Z,11.70
2018-01-14T00:55:17.864Z,11.70
2018-01-14T00:56:17.931Z,11.70
2018-01-14T00:57:17.878Z,11.70
2018-01-14T00:58:17.927Z,10.80
2018-01-14T00:59:17.868Z,10.80
2018-01-14T01:00:17.934Z,10.80
2018-01-14T01:01:17.877Z,10.80
2018-01-14T01:02:17.933Z,10.80
2018-01-14T01:03:17.937Z,10.80
2018-01-14T01:04:17.873Z,10.80
2018-01-14T01:05:17.942Z,10.80
2018-01-14T01:06:17.941Z,10.80
2018-01-14T01:07:17.869Z,10.80
2018-01-14T01:08:17.827Z,10.40
2018-01-14T01:09:17.938Z,10.40
2018-01-14T01:10:17.875Z,10.40
2018-01-14T01:11:17.938Z,10.40
2018-01-14T01:12:17.877Z,10.40
2018-01-14T01:13:17.939Z,10.40
2018-01-14T01:14:17.942Z,10.40
2018-01-14T01:15:17.878Z,10.40
2018-01-14T01:16:17.961Z,10.40
2018-01-14T01:17:17.940Z,10.40
2018-01-14T01:18:17.877Z,9.40
2018-01-14T01:19:17.929Z,9.40
2018-01-14T01:20:17.908Z,9.40
2018-01-14T01:21:17.840Z,9.40
2018-01-14T01:22:17.870Z,9.40
2018-01-14T01:23:17.935Z,9.40
2018-01-14T01:24:17.877Z,9.40
2018-01-14T01:25:17.894Z,9.40
2018-01-14T01:26:17.868Z,9.40
2018-01-14T01:27:17.899Z,9.40
2018-01-14T01:28:17.890Z,9.90
2018-01-14T01:29:17.958Z,9.90
2018-01-14T01:30:17.881Z,9.90
2018-01-14T01:31:17.949Z,9.90
2018-01-14T01:32:17.886Z,9.90
2018-01-14T01:33:17.949Z,9.90
2018-01-14T01:34:17.884Z,9.90
2018-01-14T01:35:17.951Z,9.90
2018-01-14T01:36:17.885Z,9.90
2018-01-14T01:37:17.962Z,9.90
2018-01-14T01:38:17.889Z,9.50
2018-01-14T01:39:17.978Z,9.50
2018-01-14T01:40:17.954Z,9.50
2018-01-14T01:41:17.889Z,9.50
2018-01-14T01:42:17.957Z,9.50
2018-01-14T01:43:17.888Z,9.50
2018-01-14T01:44:17.890Z,9.50
2018-01-14T01:45:17.978Z,9.50
2018-01-14T01:46:17.961Z,9.50
2018-01-14T01:47:17.938Z,9.50
2018-01-14T01:48:17.960Z,10.60
2018-01-14T01:49:17.893Z,10.60
2018-01-14T01:50:17.961Z,10.60
2018-01-14T01:51:17.894Z,10.60
2018-01-14T01:52:17.961Z,10.60
2018-01-14T01:53:17.900Z,10.60
2018-01-14T01:54:17.972Z,10.60
2018-01-14T01:55:17.902Z,10.60
2018-01-14T01:56:17.971Z,10.60
2018-01-14T01:57:17.972Z,10.60
2018-01-14T01:58:17.871Z,10.50
2018-01-14T01:59:17.872Z,10.50
2018-01-14T02:00:17.923Z,10.50
2018-01-14T02:01:17.872Z,10.50
2018-01-14T02:02:17.964Z,10.50
2018-01-14T02:03:17.957Z,10.50
2018-01-14T02:04:17.957Z,10.50
2018-01-14T02:05:18.047Z,10.50
2018-01-14T02:06:17.911Z,10.50
2018-01-14T02:07:17.907Z,10.50
2018-01-14T02:08:17.963Z,11.50
2018-01-14T02:09:17.926Z,11.50
2018-01-14T02:10:17.959Z,11.50
2018-01-14T02:11:17.862Z,11.50
2018-01-14T02:12:17.848Z,11.50
2018-01-14T02:13:17.963Z,11.50
2018-01-14T02:14:17.897Z,11.50
2018-01-14T02:15:17.884Z,11.50
2018-01-14T02:16:17.966Z,11.50
2018-01-14T02:17:17.973Z,11.50
2018-01-14T02:18:17.910Z,11.60
2018-01-14T02:19:17.976Z,11.60
2018-01-14T02:20:17.916Z,11.60
2018-01-14T02:21:17.978Z,11.60
2018-01-14T02:22:17.980Z,11.60
2018-01-14T02:23:17.909Z,11.60
2018-01-14T02:24:17.997Z,11.60
2018-01-14T02:25:17.918Z,11.60
2018-01-14T02:26:17.980Z,11.60
2018-01-14T02:27:17.919Z,11.60
2018-01-14T02:28:17.870Z,10.20
2018-01-14T02:29:17.916Z,10.20
2018-01-14T02:30:17.970Z,10.20
2018-01-14T02:31:17.885Z,10.20
2018-01-14T02:32:17.948Z,10.20
2018-01-14T02:33:17.872Z,10.20
2018-01-14T02:34:17.857Z,10.20
2018-01-14T02:35:17.966Z,10.20
2018-01-14T02:36:17.938Z,10.20
2018-01-14T02:37:17.953Z,10.20
2018-01-14T02:38:17.925Z,10.50
2018-01-14T02:39:17.993Z,10.50
2018-01-14T02:40:18.000Z,10.50
2018-01-14T02:41:17.989Z,10.50
2018-01-14T02:42:17.992Z,10.50
2018-01-14T02:43:17.925Z,10.50
2018-01-14T02:44:17.992Z,10.50
2018-01-14T02:45:18.000Z,10.50
2018-01-14T02:46:18.002Z,10.50
2018-01-14T02:47:17.979Z,10.50
2018-01-14T02:48:17.931Z,10.90
2018-01-14T02:49:17.996Z,10.90
2018-01-14T02:50:18.003Z,10.90
2018-01-14T02:51:18.000Z,10.90
2018-01-14T02:52:17.939Z,10.90
2018-01-14T02:53:18.018Z,10.90
2018-01-14T02:54:18.010Z,10.90
2018-01-14T02:55:17.932Z,10.90
2018-01-14T02:56:17.935Z,10.90
2018-01-14T02:57:18.005Z,10.90
2018-01-14T02:58:17.929Z,9.80
2018-01-14T02:59:18.003Z,9.80
2018-01-14T03:00:17.935Z,9.80
2018-01-14T03:01:18.012Z,9.80
2018-01-14T03:02:17.939Z,9.80
2018-01-14T03:03:18.009Z,9.80
2018-01-14T03:04:18.004Z,9.80
2018-01-14T03:05:17.937Z,9.80
2018-01-14T03:06:18.008Z,9.80
2018-01-14T03:07:17.937Z,9.80
2018-01-14T03:08:18.008Z,9.80
2018-01-14T03:09:17.941Z,10.30
2018-01-14T03:10:18.012Z,10.30
2018-01-14T03:11:17.945Z,10.30
2018-01-14T03:12:18.012Z,10.30
2018-01-14T03:13:17.945Z,10.30
2018-01-14T03:14:18.012Z,10.30
2018-01-14T03:15:18.014Z,10.30
2018-01-14T03:16:18.015Z,10.30
2018-01-14T03:17:18.013Z,10.30
2018-01-14T03:18:18.015Z,10.30
2018-01-14T03:19:17.968Z,10.70
2018-01-14T03:20:18.022Z,10.70
2018-01-14T03:21:17.956Z,10.70
2018-01-14T03:22:17.953Z,10.70
2018-01-14T03:23:17.955Z,10.70
2018-01-14T03:24:18.017Z,10.70
2018-01-14T03:25:18.018Z,10.70
2018-01-14T03:26:18.019Z,10.70
2018-01-14T03:27:17.956Z,10.70
2018-01-14T03:28:18.020Z,10.70
2018-01-14T03:29:17.951Z,10.80
2018-01-14T03:30:18.024Z,10.80
2018-01-14T03:31:17.962Z,10.80
2018-01-14T03:32:18.023Z,10.80
2018-01-14T03:33:17.957Z,10.80
2018-01-14T03:34:18.020Z,10.80
2018-01-14T03:35:17.954Z,10.80
2018-01-14T03:36:18.024Z,10.80
2018-01-14T03:37:17.955Z,10.80
2018-01-14T03:38:18.033Z,10.80
2018-01-14T03:39:17.963Z,10.20
2018-01-14T03:40:18.024Z,10.20
2018-01-14T03:41:17.960Z,10.20
2018-01-14T03:42:18.059Z,10.20
2018-01-14T03:43:18.005Z,10.20
2018-01-14T03:44:17.964Z,10.20
2018-01-14T03:45:18.030Z,10.20
2018-01-14T03:46:18.030Z,10.20
2018-01-14T03:47:17.964Z,10.20
2018-01-14T03:48:18.033Z,10.20
2018-01-14T03:49:17.956Z,10.60
2018-01-14T03:50:17.956Z,10.60
2018-01-14T03:51:18.020Z,10.60
2018-01-14T03:52:17.898Z,10.60
2018-01-14T03:53:17.984Z,10.60
2018-01-14T03:54:17.988Z,10.60
2018-01-14T03:55:18.019Z,10.60
2018-01-14T03:56:17.989Z,10.60
2018-01-14T03:57:17.911Z,10.60
2018-01-14T03:58:17.967Z,10.60
2018-01-14T03:59:17.926Z,10.10
2018-01-14T04:00:18.176Z,10.10
2018-01-14T04:01:17.942Z,10.10
2018-01-14T04:02:18.030Z,10.10
2018-01-14T04:03:17.945Z,10.10
2018-01-14T04:04:17.977Z,10.10
2018-01-14T04:05:18.230Z,10.10
2018-01-14T04:06:18.040Z,10.10
2018-01-14T04:07:17.961Z,10.10
2018-01-14T04:08:18.032Z,10.10
2018-01-14T04:09:17.931Z,9.70
2018-01-14T04:10:17.984Z,9.70
2018-01-14T04:11:17.950Z,9.70
2018-01-14T04:12:18.042Z,9.70
2018-01-14T04:13:17.998Z,9.70
2018-01-14T04:14:17.995Z,9.70
2018-01-14T04:15:17.956Z,9.70
2018-01-14T04:16:18.051Z,9.70
2018-01-14T04:17:17.997Z,9.70
2018-01-14T04:18:17.955Z,9.70
2018-01-14T04:19:17.985Z,10.10
2018-01-14T04:20:18.053Z,10.10
2018-01-14T04:21:17.986Z,10.10
2018-01-14T04:22:18.054Z,10.10
2018-01-14T04:23:17.995Z,10.10
2018-01-14T04:24:18.055Z,10.10
2018-01-14T04:25:17.990Z,10.10
2018-01-14T04:26:18.052Z,10.10
2018-01-14T04:27:17.989Z,10.10
2018-01-14T04:28:17.990Z,10.10
2018-01-14T04:29:18.056Z,7.30
2018-01-14T04:30:18.059Z,7.30
2018-01-14T04:31:17.992Z,7.30
2018-01-14T04:32:18.057Z,7.30
2018-01-14T04:33:17.992Z,7.30
2018-01-14T04:34:18.060Z,7.30
2018-01-14T04:35:17.997Z,7.30
2018-01-14T04:36:18.059Z,7.30
2018-01-14T04:37:17.991Z,7.30
2018-01-14T04:38:18.060Z,7.30
2018-01-14T04:39:18.043Z,11.70
2018-01-14T04:40:17.999Z,11.70
2018-01-14T04:41:18.064Z,11.70
2018-01-14T04:42:18.002Z,11.70
2018-01-14T04:43:18.067Z,11.70
2018-01-14T04:44:18.004Z,11.70
2018-01-14T04:45:18.069Z,11.70
2018-01-14T04:46:18.065Z,11.70
2018-01-14T04:47:18.080Z,11.70
2018-01-14T04:48:18.012Z,11.70
2018-01-14T04:49:17.977Z,9.70
2018-01-14T04:50:17.954Z,9.70
2018-01-14T04:51:17.974Z,9.70
2018-01-14T04:52:18.066Z,9.70
2018-01-14T04:53:18.019Z,9.70
2018-01-14T04:54:17.939Z,9.70
2018-01-14T04:55:18.040Z,9.70
2018-01-14T04:56:18.041Z,9.70
2018-01-14T04:57:17.975Z,9.70
2018-01-14T04:58:17.978Z,9.70
2018-01-14T04:59:17.983Z,9.50
2018-01-14T05:00:17.960Z,9.50
2018-01-14T05:01:18.012Z,9.50
2018-01-14T05:02:18.149Z,9.50
2018-01-14T05:03:18.031Z,9.50
2018-01-14T05:04:18.078Z,9.50
2018-01-14T05:05:18.026Z,9.50
2018-01-14T05:06:18.048Z,9.50
2018-01-14T05:07:18.070Z,9.50
2018-01-14T05:08:18.070Z,9.50
2018-01-14T05:09:17.946Z,9.90
2018-01-14T05:10:18.031Z,9.90
2018-01-14T05:11:18.068Z,9.90
2018-01-14T05:12:17.949Z,9.90
2018-01-14T05:13:17.952Z,9.90
2018-01-14T05:14:18.064Z,9.90
2018-01-14T05:15:17.944Z,9.90
2018-01-14T05:16:18.045Z,9.90
2018-01-14T05:17:18.032Z,9.90
2018-01-14T05:18:17.975Z,9.90
2018-01-14T05:19:18.088Z,7.80
2018-01-14T05:20:18.014Z,7.80
2018-01-14T05:21:18.077Z,7.80
2018-01-14T05:22:17.995Z,7.80
2018-01-14T05:23:18.008Z,7.80
2018-01-14T05:24:17.991Z,7.80
2018-01-14T05:25:18.092Z,7.80
2018-01-14T05:26:18.081Z,7.80
2018-01-14T05:27:18.057Z,7.80
2018-01-14T05:28:17.996Z,7.80
2018-01-14T05:29:18.092Z,7.50
2018-01-14T05:30:17.997Z,7.50
2018-01-14T05:31:18.042Z,7.50
2018-01-14T05:32:18.093Z,7.50
2018-01-14T05:33:18.082Z,7.50
2018-01-14T05:34:18.042Z,7.50
2018-01-14T05:35:18.080Z,7.50
2018-01-14T05:36:18.003Z,7.50
2018-01-14T05:37:18.047Z,7.50
2018-01-14T05:38:18.049Z,7.50
2018-01-14T05:39:18.099Z,8.20
2018-01-14T05:40:18.033Z,8.20
2018-01-14T05:41:18.100Z,8.20
2018-01-14T05:42:18.033Z,8.20
2018-01-14T05:43:18.124Z,8.20
2018-01-14T05:44:18.040Z,8.20
2018-01-14T05:45:18.100Z,8.20
2018-01-14T05:46:18.037Z,8.20
2018-01-14T05:47:18.101Z,8.20
2018-01-14T05:48:18.036Z,8.20
2018-01-14T05:49:18.027Z,7.10
2018-01-14T05:50:18.105Z,7.10
2018-01-14T05:51:18.040Z,7.10
2018-01-14T05:52:18.105Z,7.10
2018-01-14T05:53:18.106Z,7.10
2018-01-14T05:54:18.115Z,7.10
2018-01-14T05:55:18.107Z,7.10
2018-01-14T05:56:18.041Z,7.10
2018-01-14T05:57:18.048Z,7.10
2018-01-14T05:58:18.107Z,7.10
2018-01-14T05:59:18.041Z,8.30
2018-01-14T06:00:18.108Z,8.30
2018-01-14T06:01:18.046Z,8.30
2018-01-14T06:02:18.044Z,8.30
2018-01-14T06:03:18.114Z,8.30
2018-01-14T06:04:18.046Z,8.30
2018-01-14T06:05:18.116Z,8.30
2018-01-14T06:06:18.047Z,8.30
2018-01-14T06:07:18.124Z,8.30
2018-01-14T06:08:18.049Z,8.30
2018-01-14T06:09:18.117Z,7.20
2018-01-14T06:10:18.125Z,7.20
2018-01-14T06:11:18.117Z,7.20
2018-01-14T06:12:18.053Z,7.20
2018-01-14T06:13:18.118Z,7.20
2018-01-14T06:14:18.052Z,7.20
2018-01-14T06:15:18.119Z,7.20
2018-01-14T06:16:18.059Z,7.20
2018-01-14T06:17:18.122Z,7.20
2018-01-14T06:18:18.060Z,7.20
2018-01-14T06:19:18.123Z,7.20
2018-01-14T06:20:18.053Z,7.20
2018-01-14T06:21:18.125Z,7.20
2018-01-14T06:22:18.059Z,7.20
2018-01-14T06:23:18.137Z,7.20
2018-01-14T06:24:18.085Z,7.20
2018-01-14T06:25:18.126Z,7.20
2018-01-14T06:26:18.056Z,7.20
2018-01-14T06:27:18.125Z,7.20
2018-01-14T06:28:18.060Z,7.20
2018-01-14T06:29:18.101Z,7.20
2018-01-14T06:30:18.117Z,7.20
2018-01-14T06:31:18.113Z,7.20
2018-01-14T06:32:18.117Z,7.20
2018-01-14T06:33:18.070Z,7.20
2018-01-14T06:34:18.086Z,7.20
2018-01-14T06:35:18.100Z,7.20
2018-01-14T06:36:18.064Z,7.20
2018-01-14T06:37:18.122Z,7.20
2018-01-14T06:38:18.134Z,7.20
2018-01-14T06:39:18.069Z,6.90
2018-01-14T06:40:18.072Z,6.90
2018-01-14T06:41:18.135Z,6.90
2018-01-14T06:42:18.071Z,6.90
2018-01-14T06:43:18.135Z,6.90
2018-01-14T06:44:18.151Z,6.90
2018-01-14T06:45:18.077Z,6.90
2018-01-14T06:46:18.139Z,6.90
2018-01-14T06:47:18.137Z,6.90
2018-01-14T06:48:18.073Z,6.90
2018-01-14T06:49:18.077Z,6.20
2018-01-14T06:50:18.237Z,6.20
2018-01-14T06:51:18.145Z,6.20
2018-01-14T06:52:18.092Z,6.20
2018-01-14T06:53:18.147Z,6.20
2018-01-14T06:54:18.166Z,6.20
2018-01-14T06:55:18.083Z,6.20
2018-01-14T06:56:18.150Z,6.20
2018-01-14T06:57:18.078Z,6.20
2018-01-14T06:58:18.152Z,6.20
2018-01-14T06:59:18.069Z,5.80
2018-01-14T07:00:18.135Z,5.80
2018-01-14T07:01:18.136Z,5.80
2018-01-14T07:02:18.050Z,5.80
2018-01-14T07:03:18.049Z,5.80
2018-01-14T07:04:18.048Z,5.80
2018-01-14T07:05:18.137Z,5.80
2018-01-14T07:06:18.058Z,5.80
2018-01-14T07:07:18.052Z,5.80
2018-01-14T07:08:18.121Z,5.80
2018-01-14T07:09:18.018Z,6.70
2018-01-14T07:10:18.076Z,6.70
2018-01-14T07:11:18.015Z,6.70
2018-01-14T07:12:18.049Z,6.70
2018-01-14T07:13:18.105Z,6.70
2018-01-14T07:14:18.017Z,6.70
2018-01-14T07:15:18.048Z,6.70
2018-01-14T07:16:18.052Z,6.70
2018-01-14T07:17:18.086Z,6.70
2018-01-14T07:18:18.054Z,6.70
2018-01-14T07:19:18.062Z,6.70
2018-01-14T07:20:18.041Z,6.70
2018-01-14T07:21:18.066Z,6.70
2018-01-14T07:22:18.042Z,6.70
2018-01-14T07:23:18.153Z,6.70
2018-01-14T07:24:18.111Z,6.70
2018-01-14T07:25:18.110Z,6.70
2018-01-14T07:26:18.072Z,6.70
2018-01-14T07:27:18.070Z,6.70
2018-01-14T07:28:18.070Z,6.70
2018-01-14T07:29:18.100Z,6.60
2018-01-14T07:30:18.116Z,6.60
2018-01-14T07:31:18.181Z,6.60
2018-01-14T07:32:18.100Z,6.60
2018-01-14T07:33:18.100Z,6.60
2018-01-14T07:34:18.174Z,6.60
2018-01-14T07:35:18.172Z,6.60
2018-01-14T07:36:18.171Z,6.60
2018-01-14T07:37:18.174Z,6.60
2018-01-14T07:38:18.108Z,6.60
2018-01-14T07:39:18.124Z,6.70
2018-01-14T07:40:18.130Z,6.70
2018-01-14T07:41:18.101Z,6.70
2018-01-14T07:42:18.125Z,6.70
2018-01-14T07:43:18.097Z,6.70
2018-01-14T07:44:18.072Z,6.70
2018-01-14T07:45:18.101Z,6.70
2018-01-14T07:46:18.154Z,6.70
2018-01-14T07:47:18.159Z,6.70
2018-01-14T07:48:18.102Z,6.70
2018-01-14T07:49:18.176Z,5.60
2018-01-14T07:50:18.103Z,5.60
2018-01-14T07:51:18.175Z,5.60
2018-01-14T07:54:18.177Z,5.60
2018-01-14T07:55:18.111Z,5.60
2018-01-14T07:56:18.179Z,5.60
2018-01-14T07:57:18.112Z,5.60
2018-01-14T07:58:18.180Z,5.60
2018-01-14T07:59:18.109Z,6.30
2018-01-14T08:00:18.198Z,6.30
2018-01-14T08:01:18.182Z,6.30
2018-01-14T08:02:18.116Z,6.30
2018-01-14T08:03:18.183Z,6.30
2018-01-14T08:04:18.184Z,6.30
2018-01-14T08:05:18.110Z,6.30
2018-01-14T08:06:18.184Z,6.30
2018-01-14T08:07:18.113Z,6.30
2018-01-14T08:08:18.187Z,6.30
2018-01-14T08:09:18.079Z,7.50
2018-01-14T08:10:18.175Z,7.50
2018-01-14T08:11:18.148Z,7.50
2018-01-14T08:12:18.172Z,7.50
2018-01-14T08:13:18.148Z,7.50
2018-01-14T08:14:18.099Z,7.50
2018-01-14T08:15:18.079Z,7.50
2018-01-14T08:16:18.112Z,7.50
2018-01-14T08:17:18.085Z,7.50
2018-01-14T08:18:18.121Z,7.50
2018-01-14T08:19:18.193Z,5.60
2018-01-14T08:20:18.121Z,5.60
2018-01-14T08:21:18.196Z,5.60
2018-01-14T08:22:18.128Z,5.60
2018-01-14T08:23:18.196Z,5.60
2018-01-14T08:24:18.123Z,5.60
2018-01-14T08:25:18.196Z,5.60
2018-01-14T08:26:18.124Z,5.60
2018-01-14T08:27:18.201Z,5.60
2018-01-14T08:28:18.149Z,5.60
2018-01-14T08:29:18.145Z,4.90
2018-01-14T08:30:18.161Z,4.90
2018-01-14T08:31:18.145Z,4.90
2018-01-14T08:32:18.201Z,4.90
2018-01-14T08:33:18.081Z,4.90
2018-01-14T08:34:18.149Z,4.90
2018-01-14T08:35:18.103Z,4.90
2018-01-14T08:36:18.125Z,4.90
2018-01-14T08:37:18.082Z,4.90
2018-01-14T08:38:18.203Z,4.90
2018-01-14T08:39:18.055Z,5.30
2018-01-14T08:40:18.102Z,5.30
2018-01-14T08:41:18.032Z,5.30
2018-01-14T08:42:18.061Z,5.30
2018-01-14T08:43:18.055Z,5.30
2018-01-14T08:44:18.038Z,5.30
2018-01-14T08:45:18.087Z,5.30
2018-01-14T08:46:18.148Z,5.30
2018-01-14T08:47:18.150Z,5.30
2018-01-14T08:48:18.147Z,5.30
2018-01-14T08:49:18.136Z,4.70
2018-01-14T08:50:18.213Z,4.70
2018-01-14T08:51:18.167Z,4.70
2018-01-14T08:52:18.211Z,4.70
2018-01-14T08:53:18.140Z,4.70
2018-01-14T08:54:18.215Z,4.70
2018-01-14T08:55:18.143Z,4.70
2018-01-14T08:56:18.216Z,4.70
2018-01-14T08:57:18.169Z,4.70
2018-01-14T08:58:18.145Z,4.70
2018-01-14T08:59:18.223Z,5.99
2018-01-14T09:00:18.173Z,5.99
2018-01-14T09:01:18.215Z,5.99
2018-01-14T09:02:18.147Z,5.99
2018-01-14T09:03:18.305Z,5.99
2018-01-14T09:04:18.221Z,5.99
2018-01-14T09:05:18.145Z,5.99
2018-01-14T09:10:18.154Z,6.99
2018-01-14T09:11:18.226Z,6.99
2018-01-14T09:12:18.172Z,6.99
2018-01-14T09:13:18.224Z,6.99
2018-01-14T09:14:18.152Z,6.99
2018-01-14T09:15:18.226Z,6.99
2018-01-14T09:16:18.157Z,6.99
2018-01-14T09:17:18.227Z,6.99
2018-01-14T09:18:18.154Z,6.99
2018-01-14T09:19:18.229Z,6.90
2018-01-14T09:20:18.159Z,6.90
2018-01-14T09:21:18.230Z,6.90
2018-01-14T09:22:18.160Z,6.90
2018-01-14T09:23:18.238Z,6.90
2018-01-14T09:24:18.171Z,6.90
2018-01-14T09:25:18.160Z,6.90
2018-01-14T09:26:18.233Z,6.90
2018-01-14T09:27:18.234Z,6.90
2018-01-14T09:28:18.165Z,6.90
2018-01-14T09:29:18.184Z,6.60
2018-01-14T09:30:18.143Z,6.60
2018-01-14T09:31:18.221Z,6.60
2018-01-14T09:32:18.226Z,6.60
2018-01-14T09:33:18.122Z,6.60
2018-01-14T09:34:18.224Z,6.60
2018-01-14T09:35:18.148Z,6.60
2018-01-14T09:36:18.140Z,6.60
2018-01-14T09:37:18.229Z,6.60
2018-01-14T09:38:18.206Z,6.60
2018-01-14T09:39:18.245Z,6.90
2018-01-14T09:40:18.174Z,6.90
2018-01-14T09:41:18.246Z,6.90
2018-01-14T09:42:18.175Z,6.90
2018-01-14T09:43:18.256Z,6.90
2018-01-14T09:44:18.174Z,6.90
2018-01-14T09:45:18.244Z,6.90
2018-01-14T09:46:18.180Z,6.90
2018-01-14T09:47:18.246Z,6.90
2018-01-14T09:48:18.181Z,6.90
2018-01-14T09:49:18.171Z,7.50
2018-01-14T09:50:18.110Z,7.50
2018-01-14T09:51:18.208Z,7.50
2018-01-14T09:52:18.153Z,7.50
2018-01-14T09:53:18.208Z,7.50
2018-01-14T09:54:18.108Z,7.50
2018-01-14T09:55:18.107Z,7.50
2018-01-14T09:56:18.112Z,7.50
2018-01-14T09:57:18.144Z,7.50
2018-01-14T09:58:18.121Z,7.50
2018-01-14T09:59:18.198Z,7.50
2018-01-14T10:00:18.254Z,7.30
2018-01-14T10:01:18.186Z,7.30
2018-01-14T10:02:18.256Z,7.30
2018-01-14T10:03:18.258Z,7.30
2018-01-14T10:04:18.258Z,7.30
2018-01-14T10:05:18.186Z,7.30
2018-01-14T10:06:18.259Z,7.30
2018-01-14T10:07:18.188Z,7.30
2018-01-14T10:08:18.258Z,7.30
2018-01-14T10:09:18.188Z,7.30
2018-01-14T10:10:18.263Z,8.70
2018-01-14T10:11:18.193Z,8.70
2018-01-14T10:12:18.265Z,8.70
2018-01-14T10:13:18.194Z,8.70
2018-01-14T10:14:18.264Z,8.70
2018-01-14T10:15:18.195Z,8.70
2018-01-14T10:16:18.266Z,8.70
2018-01-14T10:17:18.198Z,8.70
2018-01-14T10:18:18.264Z,8.70
2018-01-14T10:19:18.192Z,8.70
2018-01-14T10:20:18.264Z,7.60
2018-01-14T10:21:18.259Z,7.60
2018-01-14T10:22:18.213Z,7.60
2018-01-14T10:23:18.149Z,7.60
2018-01-14T10:24:18.175Z,7.60
2018-01-14T10:25:18.254Z,7.60
2018-01-14T10:26:18.215Z,7.60
2018-01-14T10:27:18.258Z,7.60
2018-01-14T10:28:18.235Z,7.60
2018-01-14T10:29:18.213Z,7.60
2018-01-14T10:30:18.270Z,9.30
2018-01-14T10:31:18.195Z,9.30
2018-01-14T10:32:18.205Z,9.30
2018-01-14T10:33:18.273Z,9.30
2018-01-14T10:34:18.265Z,9.30
2018-01-14T10:35:18.137Z,9.30
2018-01-14T10:36:18.218Z,9.30
2018-01-14T10:37:18.207Z,9.30
2018-01-14T10:38:18.229Z,9.30
2018-01-14T10:39:18.179Z,9.30
2018-01-14T10:40:18.278Z,9.20
2018-01-14T10:41:18.213Z,9.20
2018-01-14T10:42:18.364Z,9.20
2018-01-14T10:43:18.281Z,9.20
2018-01-14T10:44:18.206Z,9.20
2018-01-14T10:45:18.361Z,9.20
2018-01-14T10:46:18.285Z,9.20
2018-01-14T10:47:18.220Z,9.20
2018-01-14T10:48:18.281Z,9.20
2018-01-14T10:49:18.212Z,9.20
2018-01-14T10:50:18.283Z,8.30
2018-01-14T10:51:18.215Z,8.30
2018-01-14T10:52:18.287Z,8.30
2018-01-14T10:53:18.213Z,8.30
2018-01-14T10:54:18.286Z,8.30
2018-01-14T10:55:18.218Z,8.30
2018-01-14T10:56:18.289Z,8.30
2018-01-14T10:57:18.219Z,8.30
2018-01-14T10:58:18.291Z,8.30
2018-01-14T10:59:18.216Z,8.30
2018-01-14T11:00:18.313Z,8.30
2018-01-14T11:01:18.222Z,8.30
2018-01-14T11:02:18.305Z,8.30
2018-01-14T11:03:18.292Z,8.30
2018-01-14T11:04:18.291Z,8.30
2018-01-14T11:05:18.223Z,8.30
2018-01-14T11:06:18.293Z,8.30
2018-01-14T11:07:18.224Z,8.30
2018-01-14T11:08:18.295Z,8.30
2018-01-14T11:09:18.223Z,8.30
2018-01-14T11:10:18.297Z,9.60
2018-01-14T11:11:18.186Z,9.60
2018-01-14T11:12:18.282Z,9.60
2018-01-14T11:13:18.287Z,9.60
2018-01-14T11:14:18.266Z,9.60
2018-01-14T11:15:18.181Z,9.60
2018-01-14T11:16:18.183Z,9.60
2018-01-14T11:17:18.246Z,9.60
2018-01-14T11:18:18.234Z,9.60
2018-01-14T11:19:18.306Z,9.60
2018-01-14T11:20:18.300Z,7.20
2018-01-14T11:21:18.305Z,7.20
2018-01-14T11:22:18.233Z,7.20
2018-01-14T11:23:18.305Z,7.20
2018-01-14T11:24:18.236Z,7.20
2018-01-14T11:25:18.306Z,7.20
2018-01-14T11:26:18.236Z,7.20
2018-01-14T11:27:18.306Z,7.20
2018-01-14T11:28:18.311Z,7.20
2018-01-14T11:29:18.240Z,7.20
2018-01-14T11:30:18.308Z,7.90
2018-01-14T11:31:18.264Z,7.90
2018-01-14T11:32:18.310Z,7.90
2018-01-14T11:33:18.311Z,7.90
2018-01-14T11:34:18.238Z,7.90
2018-01-14T11:35:18.310Z,7.90
2018-01-14T11:36:18.244Z,7.90
2018-01-14T11:37:18.311Z,7.90
2018-01-14T11:38:18.247Z,7.90
2018-01-14T11:39:18.315Z,7.90
2018-01-14T11:40:18.250Z,8.20
2018-01-14T11:41:18.352Z,8.20
2018-01-14T11:42:18.322Z,8.20
2018-01-14T11:43:18.247Z,8.20
2018-01-14T11:44:18.318Z,8.20
2018-01-14T11:45:18.248Z,8.20
2018-01-14T11:46:18.317Z,8.20
2018-01-14T11:47:18.253Z,8.20
2018-01-14T11:48:18.318Z,8.20
2018-01-14T11:49:18.248Z,8.20
2018-01-14T11:50:18.248Z,8.30
2018-01-14T11:51:18.321Z,8.30
2018-01-14T11:52:18.252Z,8.30
2018-01-14T11:53:18.322Z,8.30
2018-01-14T11:54:18.296Z,8.30
2018-01-14T11:55:18.326Z,8.30
2018-01-14T11:56:18.333Z,8.30
2018-01-14T11:57:18.326Z,8.30
2018-01-14T11:58:18.481Z,8.30
2018-01-14T11:59:18.257Z,8.30
2018-01-14T12:00:18.328Z,8.40
2018-01-14T12:01:18.261Z,8.40
2018-01-14T12:02:18.328Z,8.40
2018-01-14T12:03:18.260Z,8.40
2018-01-14T12:04:18.330Z,8.40
2018-01-14T12:05:18.260Z,8.40
2018-01-14T12:06:18.328Z,8.40
2018-01-14T12:07:18.263Z,8.40
2018-01-14T12:08:18.334Z,8.40
2018-01-14T12:09:18.336Z,8.40
2018-01-14T12:10:18.297Z,8.70
2018-01-14T12:11:18.262Z,8.70
2018-01-14T12:12:18.275Z,8.70
2018-01-14T12:13:18.275Z,8.70
2018-01-14T12:14:18.329Z,8.70
2018-01-14T12:15:18.240Z,8.70
2018-01-14T12:16:18.273Z,8.70
2018-01-14T12:17:18.270Z,8.70
2018-01-14T12:18:18.288Z,8.70
2018-01-14T12:19:18.240Z,8.70
2018-01-14T12:20:18.267Z,9.90
2018-01-14T12:21:18.340Z,9.90
2018-01-14T12:22:18.340Z,9.90
2018-01-14T12:23:18.277Z,9.90
2018-01-14T12:24:18.343Z,9.90
2018-01-14T12:25:18.275Z,9.90
2018-01-14T12:26:18.347Z,9.90
2018-01-14T12:27:18.301Z,9.90
2018-01-14T12:28:18.283Z,9.90
2018-01-14T12:29:18.280Z,9.90
2018-01-14T12:30:18.324Z,7.90
2018-01-14T12:31:18.250Z,7.90
2018-01-14T12:32:18.290Z,7.90
2018-01-14T12:33:18.252Z,7.90
2018-01-14T12:34:18.207Z,7.90
2018-01-14T12:35:18.304Z,7.90
2018-01-14T12:36:18.208Z,7.90
2018-01-14T12:37:18.277Z,7.90
2018-01-14T12:38:18.310Z,7.90
2018-01-14T12:39:18.237Z,7.90
2018-01-14T12:40:18.337Z,8.20
2018-01-14T12:41:18.340Z,8.20
2018-01-14T12:42:18.319Z,8.20
2018-01-14T12:43:18.335Z,8.20
2018-01-14T12:44:18.218Z,8.20
2018-01-14T12:45:18.333Z,8.20
2018-01-14T12:46:18.303Z,8.20
2018-01-14T12:47:18.237Z,8.20
2018-01-14T12:48:18.284Z,8.20
2018-01-14T12:49:18.302Z,8.20
2018-01-14T12:50:18.287Z,6.70
2018-01-14T12:51:18.355Z,6.70
2018-01-14T12:52:18.311Z,6.70
2018-01-14T12:53:18.363Z,6.70
2018-01-14T12:54:18.290Z,6.70
2018-01-14T12:55:18.359Z,6.70
2018-01-14T12:57:18.382Z,6.70
2018-01-14T12:58:18.292Z,6.70
2018-01-14T12:59:18.366Z,6.70
2018-01-14T13:00:18.292Z,7.20
2018-01-14T13:01:18.362Z,7.20
2018-01-14T13:02:18.297Z,7.20
2018-01-14T13:03:18.366Z,7.20
2018-01-14T13:04:18.297Z,7.20
2018-01-14T13:05:18.365Z,7.20
2018-01-14T13:06:18.296Z,7.20
2018-01-14T13:07:18.341Z,7.20
2018-01-14T13:08:18.367Z,7.20
2018-01-14T13:09:18.312Z,7.20
2018-01-14T13:10:18.298Z,6.60
2018-01-14T13:11:18.369Z,6.60
2018-01-14T13:12:18.299Z,6.60
2018-01-14T13:13:18.369Z,6.60
2018-01-14T13:14:18.301Z,6.60
2018-01-14T13:15:18.371Z,6.60
2018-01-14T13:16:18.297Z,6.60
2018-01-14T13:17:18.388Z,6.60